RJCO(METAR)
04/28 17:00
METAR RJCO 280800Z 16011KT 9999 FEW015 SCT040 BKN080 11/06 Q1003 RMK
1ST015 4CU040 6AC080 A2963=
戻る
トップページへ戻る
IMOC Co,.Ltd.